sensor_id;sensor_type;location;lat;lon;timestamp;P1;durP1;ratioP1;P2;durP2;ratioP2
81936;SDS011;71432;56.558;9.036;2023-08-08T00:00:37;5.00;;;0.80;;
81936;SDS011;71432;56.558;9.036;2023-08-08T00:03:02;1.20;;;0.50;;
81936;SDS011;71432;56.558;9.036;2023-08-08T00:05:28;4.55;;;0.50;;
81936;SDS011;71432;56.558;9.036;2023-08-08T00:07:53;2.17;;;0.60;;
81936;SDS011;71432;56.558;9.036;2023-08-08T00:10:18;2.13;;;0.50;;
81936;SDS011;71432;56.558;9.036;2023-08-08T00:12:44;4.40;;;0.70;;
81936;SDS011;71432;56.558;9.036;2023-08-08T00:15:09;4.70;;;0.60;;
81936;SDS011;71432;56.558;9.036;2023-08-08T00:17:34;3.28;;;0.80;;
81936;SDS011;71432;56.558;9.036;2023-08-08T00:20:00;3.55;;;1.25;;
81936;SDS011;71432;56.558;9.036;2023-08-08T00:22:25;2.45;;;0.60;;
81936;SDS011;71432;56.558;9.036;2023-08-08T00:24:51;2.15;;;0.55;;
81936;SDS011;71432;56.558;9.036;2023-08-08T00:27:16;4.68;;;0.70;;
81936;SDS011;71432;56.558;9.036;2023-08-08T00:29:42;2.28;;;0.75;;
81936;SDS011;71432;56.558;9.036;2023-08-08T00:32:07;2.88;;;1.20;;
81936;SDS011;71432;56.558;9.036;2023-08-08T00:34:32;2.53;;;0.70;;
81936;SDS011;71432;56.558;9.036;2023-08-08T00:36:58;2.60;;;0.63;;
81936;SDS011;71432;56.558;9.036;2023-08-08T00:39:23;3.38;;;0.70;;
81936;SDS011;71432;56.558;9.036;2023-08-08T00:41:48;2.15;;;0.52;;
81936;SDS011;71432;56.558;9.036;2023-08-08T00:44:14;1.98;;;0.63;;
81936;SDS011;71432;56.558;9.036;2023-08-08T00:46:39;2.00;;;0.85;;
81936;SDS011;71432;56.558;9.036;2023-08-08T00:49:04;2.88;;;0.73;;
81936;SDS011;71432;56.558;9.036;2023-08-08T00:51:30;2.35;;;0.70;;
81936;SDS011;71432;56.558;9.036;2023-08-08T00:53:55;2.33;;;0.50;;
81936;SDS011;71432;56.558;9.036;2023-08-08T00:56:21;3.58;;;0.63;;
81936;SDS011;71432;56.558;9.036;2023-08-08T00:58:47;2.40;;;0.52;;
81936;SDS011;71432;56.558;9.036;2023-08-08T01:01:15;4.07;;;0.88;;
81936;SDS011;71432;56.558;9.036;2023-08-08T01:09:08;4.97;;;0.63;;
81936;SDS011;71432;56.558;9.036;2023-08-08T01:11:38;1.90;;;0.50;;
81936;SDS011;71432;56.558;9.036;2023-08-08T01:14:04;3.15;;;0.75;;
81936;SDS011;71432;56.558;9.036;2023-08-08T01:16:32;1.70;;;0.60;;
81936;SDS011;71432;56.558;9.036;2023-08-08T01:18:57;1.98;;;0.55;;
81936;SDS011;71432;56.558;9.036;2023-08-08T01:21:24;3.45;;;0.80;;
81936;SDS011;71432;56.558;9.036;2023-08-08T01:23:53;2.95;;;0.63;;
81936;SDS011;71432;56.558;9.036;2023-08-08T01:26:25;4.53;;;0.80;;
81936;SDS011;71432;56.558;9.036;2023-08-08T01:28:54;2.75;;;0.50;;
81936;SDS011;71432;56.558;9.036;2023-08-08T01:31:20;3.30;;;0.60;;
81936;SDS011;71432;56.558;9.036;2023-08-08T01:33:45;1.30;;;0.60;;
81936;SDS011;71432;56.558;9.036;2023-08-08T01:36:22;1.08;;;0.50;;
81936;SDS011;71432;56.558;9.036;2023-08-08T01:38:53;2.53;;;0.47;;
81936;SDS011;71432;56.558;9.036;2023-08-08T01:41:24;2.25;;;0.60;;
81936;SDS011;71432;56.558;9.036;2023-08-08T01:43:50;2.92;;;0.75;;
81936;SDS011;71432;56.558;9.036;2023-08-08T01:46:17;1.48;;;0.55;;
81936;SDS011;71432;56.558;9.036;2023-08-08T01:48:45;2.80;;;0.80;;
81936;SDS011;71432;56.558;9.036;2023-08-08T01:51:11;3.60;;;0.70;;
81936;SDS011;71432;56.558;9.036;2023-08-08T01:53:37;2.35;;;0.40;;
81936;SDS011;71432;56.558;9.036;2023-08-08T01:56:02;1.63;;;0.40;;
81936;SDS011;71432;56.558;9.036;2023-08-08T01:58:28;1.08;;;0.40;;
81936;SDS011;71432;56.558;9.036;2023-08-08T02:00:53;2.65;;;0.45;;
81936;SDS011;71432;56.558;9.036;2023-08-08T02:03:18;1.90;;;0.77;;
81936;SDS011;71432;56.558;9.036;2023-08-08T02:05:44;1.48;;;0.35;;
81936;SDS011;71432;56.558;9.036;2023-08-08T02:08:09;1.80;;;0.75;;
81936;SDS011;71432;56.558;9.036;2023-08-08T02:10:35;2.50;;;0.50;;
81936;SDS011;71432;56.558;9.036;2023-08-08T02:13:00;2.57;;;0.83;;
81936;SDS011;71432;56.558;9.036;2023-08-08T02:15:25;3.43;;;0.70;;
81936;SDS011;71432;56.558;9.036;2023-08-08T02:17:51;2.67;;;0.50;;
81936;SDS011;71432;56.558;9.036;2023-08-08T02:20:16;3.00;;;0.80;;
81936;SDS011;71432;56.558;9.036;2023-08-08T02:22:42;3.72;;;0.70;;
81936;SDS011;71432;56.558;9.036;2023-08-08T02:25:08;3.25;;;0.57;;
81936;SDS011;71432;56.558;9.036;2023-08-08T02:27:33;0.80;;;0.35;;
81936;SDS011;71432;56.558;9.036;2023-08-08T02:29:58;2.10;;;1.03;;
81936;SDS011;71432;56.558;9.036;2023-08-08T02:32:24;2.33;;;0.60;;
81936;SDS011;71432;56.558;9.036;2023-08-08T02:34:49;1.60;;;0.50;;
81936;SDS011;71432;56.558;9.036;2023-08-08T02:37:15;2.75;;;0.73;;
81936;SDS011;71432;56.558;9.036;2023-08-08T02:39:41;2.55;;;0.68;;
81936;SDS011;71432;56.558;9.036;2023-08-08T02:42:07;2.35;;;0.90;;
81936;SDS011;71432;56.558;9.036;2023-08-08T02:44:33;1.63;;;0.60;;
81936;SDS011;71432;56.558;9.036;2023-08-08T02:46:58;3.38;;;0.73;;
81936;SDS011;71432;56.558;9.036;2023-08-08T02:49:23;2.30;;;0.67;;
81936;SDS011;71432;56.558;9.036;2023-08-08T02:51:49;1.00;;;0.40;;
81936;SDS011;71432;56.558;9.036;2023-08-08T02:54:14;2.03;;;0.67;;
81936;SDS011;71432;56.558;9.036;2023-08-08T02:56:39;3.53;;;0.50;;
81936;SDS011;71432;56.558;9.036;2023-08-08T02:59:04;4.32;;;0.82;;
81936;SDS011;71432;56.558;9.036;2023-08-08T03:01:30;1.43;;;0.63;;
81936;SDS011;71432;56.558;9.036;2023-08-08T03:03:55;1.50;;;0.40;;
81936;SDS011;71432;56.558;9.036;2023-08-08T03:06:20;2.33;;;0.52;;
81936;SDS011;71432;56.558;9.036;2023-08-08T03:08:46;2.42;;;0.80;;
81936;SDS011;71432;56.558;9.036;2023-08-08T03:11:11;1.40;;;0.70;;
81936;SDS011;71432;56.558;9.036;2023-08-08T03:13:36;2.60;;;0.70;;
81936;SDS011;71432;56.558;9.036;2023-08-08T03:16:02;1.83;;;0.38;;
81936;SDS011;71432;56.558;9.036;2023-08-08T03:18:28;2.90;;;0.43;;
81936;SDS011;71432;56.558;9.036;2023-08-08T03:20:53;1.63;;;0.43;;
81936;SDS011;71432;56.558;9.036;2023-08-08T03:23:19;2.55;;;1.15;;
81936;SDS011;71432;56.558;9.036;2023-08-08T03:25:44;1.25;;;0.50;;
81936;SDS011;71432;56.558;9.036;2023-08-08T03:28:09;2.20;;;0.60;;
81936;SDS011;71432;56.558;9.036;2023-08-08T03:30:37;2.17;;;0.60;;
81936;SDS011;71432;56.558;9.036;2023-08-08T03:33:04;1.65;;;0.85;;
81936;SDS011;71432;56.558;9.036;2023-08-08T03:35:29;1.58;;;0.57;;
81936;SDS011;71432;56.558;9.036;2023-08-08T03:37:55;1.77;;;0.50;;
81936;SDS011;71432;56.558;9.036;2023-08-08T03:40:20;2.33;;;0.40;;
81936;SDS011;71432;56.558;9.036;2023-08-08T03:42:45;3.70;;;1.05;;
81936;SDS011;71432;56.558;9.036;2023-08-08T03:45:11;3.97;;;0.90;;
81936;SDS011;71432;56.558;9.036;2023-08-08T03:47:36;1.85;;;0.45;;
81936;SDS011;71432;56.558;9.036;2023-08-08T03:50:02;2.37;;;0.40;;
81936;SDS011;71432;56.558;9.036;2023-08-08T03:52:27;1.55;;;0.50;;
81936;SDS011;71432;56.558;9.036;2023-08-08T03:54:53;2.60;;;0.70;;
81936;SDS011;71432;56.558;9.036;2023-08-08T03:57:18;1.45;;;0.80;;
81936;SDS011;71432;56.558;9.036;2023-08-08T03:59:44;1.60;;;0.60;;
81936;SDS011;71432;56.558;9.036;2023-08-08T04:02:09;3.67;;;0.70;;
81936;SDS011;71432;56.558;9.036;2023-08-08T04:04:34;1.55;;;0.57;;
81936;SDS011;71432;56.558;9.036;2023-08-08T04:07:00;2.33;;;0.80;;
81936;SDS011;71432;56.558;9.036;2023-08-08T04:09:25;1.47;;;0.43;;
81936;SDS011;71432;56.558;9.036;2023-08-08T04:11:50;1.20;;;0.60;;
81936;SDS011;71432;56.558;9.036;2023-08-08T04:14:15;2.43;;;0.67;;
81936;SDS011;71432;56.558;9.036;2023-08-08T04:16:41;1.10;;;0.40;;
81936;SDS011;71432;56.558;9.036;2023-08-08T04:19:06;1.73;;;0.70;;
81936;SDS011;71432;56.558;9.036;2023-08-08T04:21:31;1.98;;;0.60;;
81936;SDS011;71432;56.558;9.036;2023-08-08T04:23:58;1.55;;;0.40;;
81936;SDS011;71432;56.558;9.036;2023-08-08T04:26:24;1.02;;;0.45;;
81936;SDS011;71432;56.558;9.036;2023-08-08T04:28:49;1.40;;;0.50;;
81936;SDS011;71432;56.558;9.036;2023-08-08T04:31:14;2.80;;;0.60;;
81936;SDS011;71432;56.558;9.036;2023-08-08T04:33:40;1.67;;;0.50;;
81936;SDS011;71432;56.558;9.036;2023-08-08T04:36:05;2.30;;;0.63;;
81936;SDS011;71432;56.558;9.036;2023-08-08T04:38:30;3.30;;;0.70;;
81936;SDS011;71432;56.558;9.036;2023-08-08T04:40:56;2.42;;;1.02;;
81936;SDS011;71432;56.558;9.036;2023-08-08T04:43:21;0.73;;;0.33;;
81936;SDS011;71432;56.558;9.036;2023-08-08T04:45:46;0.55;;;0.30;;
81936;SDS011;71432;56.558;9.036;2023-08-08T04:48:12;1.92;;;0.43;;
81936;SDS011;71432;56.558;9.036;2023-08-08T04:50:37;2.25;;;0.40;;
81936;SDS011;71432;56.558;9.036;2023-08-08T04:53:03;1.33;;;0.38;;
81936;SDS011;71432;56.558;9.036;2023-08-08T04:55:28;2.70;;;0.60;;
81936;SDS011;71432;56.558;9.036;2023-08-08T04:57:53;1.38;;;0.40;;
81936;SDS011;71432;56.558;9.036;2023-08-08T05:00:19;2.67;;;0.60;;
81936;SDS011;71432;56.558;9.036;2023-08-08T05:02:44;1.20;;;0.40;;
81936;SDS011;71432;56.558;9.036;2023-08-08T05:05:09;0.93;;;0.50;;
81936;SDS011;71432;56.558;9.036;2023-08-08T05:07:35;2.92;;;0.63;;
81936;SDS011;71432;56.558;9.036;2023-08-08T05:10:02;1.70;;;0.43;;
81936;SDS011;71432;56.558;9.036;2023-08-08T05:12:28;3.13;;;0.55;;
81936;SDS011;71432;56.558;9.036;2023-08-08T05:14:53;2.10;;;0.40;;
81936;SDS011;71432;56.558;9.036;2023-08-08T05:17:19;2.45;;;0.60;;
81936;SDS011;71432;56.558;9.036;2023-08-08T05:19:44;2.05;;;0.50;;
81936;SDS011;71432;56.558;9.036;2023-08-08T05:22:09;1.75;;;0.40;;
81936;SDS011;71432;56.558;9.036;2023-08-08T05:24:35;1.65;;;0.60;;
81936;SDS011;71432;56.558;9.036;2023-08-08T05:27:00;0.88;;;0.30;;
81936;SDS011;71432;56.558;9.036;2023-08-08T05:29:26;2.53;;;0.57;;
81936;SDS011;71432;56.558;9.036;2023-08-08T05:31:51;3.17;;;0.60;;
81936;SDS011;71432;56.558;9.036;2023-08-08T05:34:17;14.88;;;1.00;;
81936;SDS011;71432;56.558;9.036;2023-08-08T05:36:42;3.92;;;0.73;;
81936;SDS011;71432;56.558;9.036;2023-08-08T05:39:07;5.63;;;1.10;;
81936;SDS011;71432;56.558;9.036;2023-08-08T05:41:34;1.30;;;0.55;;
81936;SDS011;71432;56.558;9.036;2023-08-08T05:44:00;2.75;;;0.60;;
81936;SDS011;71432;56.558;9.036;2023-08-08T05:46:26;1.73;;;0.40;;
81936;SDS011;71432;56.558;9.036;2023-08-08T05:48:51;3.67;;;0.60;;
81936;SDS011;71432;56.558;9.036;2023-08-08T05:51:16;6.65;;;0.95;;
81936;SDS011;71432;56.558;9.036;2023-08-08T05:53:42;17.45;;;2.17;;
81936;SDS011;71432;56.558;9.036;2023-08-08T05:56:07;21.23;;;5.60;;
81936;SDS011;71432;56.558;9.036;2023-08-08T05:58:34;54.35;;;12.75;;
81936;SDS011;71432;56.558;9.036;2023-08-08T06:00:59;45.72;;;11.90;;
81936;SDS011;71432;56.558;9.036;2023-08-08T06:03:25;44.60;;;11.73;;
81936;SDS011;71432;56.558;9.036;2023-08-08T06:05:50;41.80;;;12.77;;
81936;SDS011;71432;56.558;9.036;2023-08-08T06:08:15;44.67;;;11.73;;
81936;SDS011;71432;56.558;9.036;2023-08-08T06:10:41;27.98;;;8.65;;
81936;SDS011;71432;56.558;9.036;2023-08-08T06:13:07;26.50;;;7.68;;
81936;SDS011;71432;56.558;9.036;2023-08-08T06:15:32;34.83;;;10.43;;
81936;SDS011;71432;56.558;9.036;2023-08-08T06:17:58;31.55;;;8.75;;
81936;SDS011;71432;56.558;9.036;2023-08-08T06:20:24;34.97;;;9.05;;
81936;SDS011;71432;56.558;9.036;2023-08-08T06:22:49;32.88;;;9.35;;
81936;SDS011;71432;56.558;9.036;2023-08-08T06:25:15;29.95;;;9.10;;
81936;SDS011;71432;56.558;9.036;2023-08-08T06:27:40;25.25;;;7.57;;
81936;SDS011;71432;56.558;9.036;2023-08-08T06:30:06;37.00;;;8.83;;
81936;SDS011;71432;56.558;9.036;2023-08-08T06:32:33;32.42;;;9.23;;
81936;SDS011;71432;56.558;9.036;2023-08-08T06:34:58;28.83;;;8.63;;
81936;SDS011;71432;56.558;9.036;2023-08-08T06:37:24;30.88;;;8.52;;
81936;SDS011;71432;56.558;9.036;2023-08-08T06:39:49;26.30;;;7.57;;
81936;SDS011;71432;56.558;9.036;2023-08-08T06:42:14;30.77;;;8.97;;
81936;SDS011;71432;56.558;9.036;2023-08-08T06:44:43;27.77;;;8.02;;
81936;SDS011;71432;56.558;9.036;2023-08-08T06:47:10;32.00;;;7.03;;
81936;SDS011;71432;56.558;9.036;2023-08-08T06:52:01;20.73;;;6.97;;
81936;SDS011;71432;56.558;9.036;2023-08-08T06:54:26;24.75;;;7.30;;
81936;SDS011;71432;56.558;9.036;2023-08-08T06:56:54;22.50;;;7.15;;
81936;SDS011;71432;56.558;9.036;2023-08-08T06:59:22;29.48;;;6.35;;
81936;SDS011;71432;56.558;9.036;2023-08-08T07:01:47;30.00;;;7.10;;
81936;SDS011;71432;56.558;9.036;2023-08-08T07:04:13;22.52;;;6.22;;
81936;SDS011;71432;56.558;9.036;2023-08-08T07:06:39;30.98;;;6.95;;
81936;SDS011;71432;56.558;9.036;2023-08-08T07:09:04;34.20;;;8.47;;
81936;SDS011;71432;56.558;9.036;2023-08-08T07:11:31;33.72;;;7.70;;
81936;SDS011;71432;56.558;9.036;2023-08-08T07:13:56;27.93;;;7.10;;
81936;SDS011;71432;56.558;9.036;2023-08-08T07:16:21;29.00;;;5.70;;
81936;SDS011;71432;56.558;9.036;2023-08-08T07:18:47;25.85;;;7.68;;
81936;SDS011;71432;56.558;9.036;2023-08-08T07:21:12;17.63;;;4.65;;
81936;SDS011;71432;56.558;9.036;2023-08-08T07:23:37;20.93;;;6.00;;
81936;SDS011;71432;56.558;9.036;2023-08-08T07:26:02;23.33;;;5.10;;
81936;SDS011;71432;56.558;9.036;2023-08-08T07:28:28;18.42;;;5.45;;
81936;SDS011;71432;56.558;9.036;2023-08-08T07:30:53;18.70;;;6.07;;
81936;SDS011;71432;56.558;9.036;2023-08-08T07:33:18;22.63;;;5.75;;
81936;SDS011;71432;56.558;9.036;2023-08-08T07:35:44;16.48;;;5.30;;
81936;SDS011;71432;56.558;9.036;2023-08-08T07:38:09;21.67;;;5.82;;
81936;SDS011;71432;56.558;9.036;2023-08-08T07:40:34;23.70;;;5.88;;
81936;SDS011;71432;56.558;9.036;2023-08-08T07:43:00;23.40;;;5.82;;
81936;SDS011;71432;56.558;9.036;2023-08-08T07:45:26;16.13;;;4.63;;
81936;SDS011;71432;56.558;9.036;2023-08-08T07:47:51;18.73;;;4.90;;
81936;SDS011;71432;56.558;9.036;2023-08-08T07:50:16;15.90;;;4.80;;
81936;SDS011;71432;56.558;9.036;2023-08-08T07:52:42;16.75;;;4.57;;
81936;SDS011;71432;56.558;9.036;2023-08-08T07:55:07;21.02;;;6.13;;
81936;SDS011;71432;56.558;9.036;2023-08-08T07:57:33;17.30;;;6.03;;
81936;SDS011;71432;56.558;9.036;2023-08-08T08:00:03;17.77;;;4.53;;
81936;SDS011;71432;56.558;9.036;2023-08-08T08:02:42;17.67;;;5.35;;
81936;SDS011;71432;56.558;9.036;2023-08-08T08:05:08;17.90;;;5.15;;
81936;SDS011;71432;56.558;9.036;2023-08-08T08:07:34;14.25;;;5.10;;
81936;SDS011;71432;56.558;9.036;2023-08-08T08:10:04;12.25;;;4.13;;
81936;SDS011;71432;56.558;9.036;2023-08-08T08:12:32;15.68;;;4.38;;
81936;SDS011;71432;56.558;9.036;2023-08-08T08:14:58;17.23;;;5.05;;
81936;SDS011;71432;56.558;9.036;2023-08-08T08:17:23;16.65;;;4.60;;
81936;SDS011;71432;56.558;9.036;2023-08-08T08:19:50;12.15;;;3.92;;
81936;SDS011;71432;56.558;9.036;2023-08-08T08:22:16;10.10;;;4.63;;
81936;SDS011;71432;56.558;9.036;2023-08-08T08:24:41;13.63;;;4.05;;
81936;SDS011;71432;56.558;9.036;2023-08-08T08:27:06;11.93;;;3.80;;
81936;SDS011;71432;56.558;9.036;2023-08-08T08:29:32;15.45;;;4.95;;
81936;SDS011;71432;56.558;9.036;2023-08-08T08:31:58;19.48;;;5.05;;
81936;SDS011;71432;56.558;9.036;2023-08-08T08:34:23;15.60;;;5.00;;
81936;SDS011;71432;56.558;9.036;2023-08-08T08:36:48;14.80;;;3.67;;
81936;SDS011;71432;56.558;9.036;2023-08-08T08:39:14;16.40;;;4.73;;
81936;SDS011;71432;56.558;9.036;2023-08-08T08:41:39;11.83;;;4.17;;
81936;SDS011;71432;56.558;9.036;2023-08-08T08:44:04;11.38;;;3.70;;
81936;SDS011;71432;56.558;9.036;2023-08-08T08:46:33;12.60;;;4.30;;
81936;SDS011;71432;56.558;9.036;2023-08-08T08:49:01;16.88;;;4.15;;
81936;SDS011;71432;56.558;9.036;2023-08-08T08:51:29;10.68;;;3.60;;
81936;SDS011;71432;56.558;9.036;2023-08-08T08:53:54;12.13;;;4.25;;
81936;SDS011;71432;56.558;9.036;2023-08-08T08:56:20;13.20;;;3.65;;
81936;SDS011;71432;56.558;9.036;2023-08-08T08:58:45;9.23;;;3.50;;
81936;SDS011;71432;56.558;9.036;2023-08-08T09:01:11;13.95;;;4.22;;
81936;SDS011;71432;56.558;9.036;2023-08-08T09:03:36;13.05;;;3.17;;
81936;SDS011;71432;56.558;9.036;2023-08-08T09:06:02;14.35;;;3.72;;
81936;SDS011;71432;56.558;9.036;2023-08-08T09:08:29;12.30;;;4.03;;
81936;SDS011;71432;56.558;9.036;2023-08-08T09:10:55;10.32;;;3.22;;
81936;SDS011;71432;56.558;9.036;2023-08-08T09:13:21;7.32;;;2.70;;
81936;SDS011;71432;56.558;9.036;2023-08-08T09:15:48;12.15;;;3.83;;
81936;SDS011;71432;56.558;9.036;2023-08-08T09:18:14;11.43;;;3.33;;
81936;SDS011;71432;56.558;9.036;2023-08-08T09:20:39;9.65;;;3.05;;
81936;SDS011;71432;56.558;9.036;2023-08-08T09:23:05;10.82;;;3.88;;
81936;SDS011;71432;56.558;9.036;2023-08-08T09:25:31;13.60;;;3.53;;
81936;SDS011;71432;56.558;9.036;2023-08-08T09:27:56;7.72;;;2.70;;
81936;SDS011;71432;56.558;9.036;2023-08-08T09:30:22;9.70;;;3.17;;
81936;SDS011;71432;56.558;9.036;2023-08-08T09:32:47;7.28;;;2.70;;
81936;SDS011;71432;56.558;9.036;2023-08-08T09:35:13;13.48;;;3.90;;
81936;SDS011;71432;56.558;9.036;2023-08-08T09:37:38;12.70;;;3.97;;
81936;SDS011;71432;56.558;9.036;2023-08-08T09:40:04;9.85;;;3.00;;
81936;SDS011;71432;56.558;9.036;2023-08-08T09:42:33;8.13;;;2.40;;
81936;SDS011;71432;56.558;9.036;2023-08-08T09:44:59;8.63;;;3.28;;
81936;SDS011;71432;56.558;9.036;2023-08-08T09:47:25;14.10;;;3.25;;
81936;SDS011;71432;56.558;9.036;2023-08-08T09:49:56;7.05;;;2.58;;
81936;SDS011;71432;56.558;9.036;2023-08-08T09:52:24;14.48;;;3.10;;
81936;SDS011;71432;56.558;9.036;2023-08-08T09:54:50;9.35;;;2.47;;
81936;SDS011;71432;56.558;9.036;2023-08-08T09:57:17;6.47;;;1.92;;
81936;SDS011;71432;56.558;9.036;2023-08-08T09:59:43;6.47;;;1.55;;
81936;SDS011;71432;56.558;9.036;2023-08-08T10:02:10;7.22;;;1.67;;
81936;SDS011;71432;56.558;9.036;2023-08-08T10:04:39;5.22;;;1.52;;
81936;SDS011;71432;56.558;9.036;2023-08-08T10:07:04;7.03;;;2.42;;
81936;SDS011;71432;56.558;9.036;2023-08-08T10:09:30;7.40;;;1.92;;
81936;SDS011;71432;56.558;9.036;2023-08-08T10:11:55;5.60;;;1.40;;
81936;SDS011;71432;56.558;9.036;2023-08-08T10:14:22;7.63;;;1.42;;
81936;SDS011;71432;56.558;9.036;2023-08-08T10:16:55;9.05;;;2.00;;
81936;SDS011;71432;56.558;9.036;2023-08-08T10:19:23;4.82;;;1.17;;
81936;SDS011;71432;56.558;9.036;2023-08-08T10:21:54;2.85;;;0.88;;
81936;SDS011;71432;56.558;9.036;2023-08-08T10:24:22;2.75;;;1.02;;
81936;SDS011;71432;56.558;9.036;2023-08-08T10:26:51;5.75;;;1.13;;
81936;SDS011;71432;56.558;9.036;2023-08-08T10:29:19;9.43;;;1.48;;
81936;SDS011;71432;56.558;9.036;2023-08-08T10:31:51;8.32;;;1.48;;
81936;SDS011;71432;56.558;9.036;2023-08-08T10:34:19;5.80;;;1.13;;
81936;SDS011;71432;56.558;9.036;2023-08-08T10:36:49;13.05;;;2.25;;
81936;SDS011;71432;56.558;9.036;2023-08-08T10:39:17;8.63;;;1.98;;
81936;SDS011;71432;56.558;9.036;2023-08-08T10:41:46;5.25;;;1.10;;
81936;SDS011;71432;56.558;9.036;2023-08-08T10:44:13;7.65;;;1.30;;
81936;SDS011;71432;56.558;9.036;2023-08-08T10:59:38;5.93;;;1.10;;
81936;SDS011;71432;56.558;9.036;2023-08-08T11:02:04;11.18;;;1.35;;
81936;SDS011;71432;56.558;9.036;2023-08-08T11:04:30;7.68;;;1.23;;
81936;SDS011;71432;56.558;9.036;2023-08-08T11:06:57;4.32;;;1.08;;
81936;SDS011;71432;56.558;9.036;2023-08-08T11:09:23;5.78;;;1.05;;
81936;SDS011;71432;56.558;9.036;2023-08-08T11:11:48;6.60;;;0.88;;
81936;SDS011;71432;56.558;9.036;2023-08-08T11:14:15;4.00;;;1.52;;
81936;SDS011;71432;56.558;9.036;2023-08-08T11:16:42;8.45;;;1.27;;
81936;SDS011;71432;56.558;9.036;2023-08-08T11:19:09;8.80;;;1.50;;
81936;SDS011;71432;56.558;9.036;2023-08-08T11:24:08;8.70;;;1.67;;
81936;SDS011;71432;56.558;9.036;2023-08-08T11:29:00;6.20;;;0.85;;
81936;SDS011;71432;56.558;9.036;2023-08-08T11:33:55;3.00;;;0.95;;
81936;SDS011;71432;56.558;9.036;2023-08-08T11:36:22;2.85;;;1.05;;
81936;SDS011;71432;56.558;9.036;2023-08-08T11:38:48;3.97;;;0.82;;
81936;SDS011;71432;56.558;9.036;2023-08-08T11:41:15;4.43;;;1.05;;
81936;SDS011;71432;56.558;9.036;2023-08-08T11:46:14;3.42;;;0.70;;
81936;SDS011;71432;56.558;9.036;2023-08-08T11:48:40;3.92;;;0.90;;
81936;SDS011;71432;56.558;9.036;2023-08-08T11:51:06;3.83;;;0.90;;
81936;SDS011;71432;56.558;9.036;2023-08-08T11:53:33;4.20;;;1.38;;
81936;SDS011;71432;56.558;9.036;2023-08-08T11:55:59;2.72;;;1.20;;
81936;SDS011;71432;56.558;9.036;2023-08-08T11:58:25;3.13;;;1.17;;
81936;SDS011;71432;56.558;9.036;2023-08-08T12:00:51;6.13;;;1.00;;
81936;SDS011;71432;56.558;9.036;2023-08-08T12:05:44;3.75;;;0.80;;
81936;SDS011;71432;56.558;9.036;2023-08-08T12:08:11;2.22;;;0.95;;
81936;SDS011;71432;56.558;9.036;2023-08-08T12:10:36;4.65;;;0.98;;
81936;SDS011;71432;56.558;9.036;2023-08-08T12:13:01;4.20;;;0.80;;
81936;SDS011;71432;56.558;9.036;2023-08-08T12:15:33;4.90;;;0.82;;
81936;SDS011;71432;56.558;9.036;2023-08-08T12:18:03;4.25;;;0.80;;
81936;SDS011;71432;56.558;9.036;2023-08-08T12:20:30;7.32;;;1.45;;
81936;SDS011;71432;56.558;9.036;2023-08-08T12:22:56;2.40;;;0.55;;
81936;SDS011;71432;56.558;9.036;2023-08-08T12:27:47;1.75;;;0.60;;
81936;SDS011;71432;56.558;9.036;2023-08-08T12:30:13;3.50;;;0.75;;
81936;SDS011;71432;56.558;9.036;2023-08-08T12:32:38;3.03;;;0.80;;
81936;SDS011;71432;56.558;9.036;2023-08-08T12:35:04;3.92;;;0.90;;
81936;SDS011;71432;56.558;9.036;2023-08-08T12:37:31;2.33;;;1.08;;
81936;SDS011;71432;56.558;9.036;2023-08-08T12:39:56;2.35;;;1.00;;
81936;SDS011;71432;56.558;9.036;2023-08-08T12:42:22;5.10;;;1.00;;
81936;SDS011;71432;56.558;9.036;2023-08-08T12:44:47;6.15;;;0.93;;
81936;SDS011;71432;56.558;9.036;2023-08-08T12:47:16;3.40;;;1.25;;
81936;SDS011;71432;56.558;9.036;2023-08-08T12:49:41;5.97;;;3.00;;
81936;SDS011;71432;56.558;9.036;2023-08-08T12:52:06;4.03;;;0.90;;
81936;SDS011;71432;56.558;9.036;2023-08-08T12:54:32;2.47;;;0.75;;
81936;SDS011;71432;56.558;9.036;2023-08-08T12:56:57;3.50;;;0.70;;
81936;SDS011;71432;56.558;9.036;2023-08-08T12:59:23;2.92;;;0.57;;
81936;SDS011;71432;56.558;9.036;2023-08-08T13:01:48;2.50;;;0.63;;
81936;SDS011;71432;56.558;9.036;2023-08-08T13:04:13;5.20;;;0.97;;
81936;SDS011;71432;56.558;9.036;2023-08-08T13:06:39;3.42;;;0.88;;
81936;SDS011;71432;56.558;9.036;2023-08-08T13:09:04;4.47;;;0.73;;
81936;SDS011;71432;56.558;9.036;2023-08-08T13:11:30;5.63;;;0.90;;
81936;SDS011;71432;56.558;9.036;2023-08-08T13:13:55;3.58;;;1.00;;
81936;SDS011;71432;56.558;9.036;2023-08-08T13:16:20;3.53;;;0.88;;
81936;SDS011;71432;56.558;9.036;2023-08-08T13:18:46;6.20;;;1.15;;
81936;SDS011;71432;56.558;9.036;2023-08-08T13:21:11;6.95;;;1.15;;
81936;SDS011;71432;56.558;9.036;2023-08-08T13:23:37;5.80;;;1.27;;
81936;SDS011;71432;56.558;9.036;2023-08-08T13:26:02;8.15;;;1.55;;
81936;SDS011;71432;56.558;9.036;2023-08-08T13:28:29;10.05;;;2.10;;
81936;SDS011;71432;56.558;9.036;2023-08-08T13:30:54;17.02;;;3.40;;
81936;SDS011;71432;56.558;9.036;2023-08-08T13:33:19;8.93;;;1.58;;
81936;SDS011;71432;56.558;9.036;2023-08-08T13:35:45;11.55;;;1.58;;
81936;SDS011;71432;56.558;9.036;2023-08-08T13:38:11;13.23;;;2.05;;
81936;SDS011;71432;56.558;9.036;2023-08-08T13:40:39;10.15;;;1.63;;
81936;SDS011;71432;56.558;9.036;2023-08-08T13:43:08;9.13;;;1.80;;
81936;SDS011;71432;56.558;9.036;2023-08-08T13:45:33;9.30;;;1.50;;
81936;SDS011;71432;56.558;9.036;2023-08-08T13:47:59;14.52;;;1.98;;
81936;SDS011;71432;56.558;9.036;2023-08-08T13:50:24;11.07;;;1.52;;
81936;SDS011;71432;56.558;9.036;2023-08-08T13:52:50;6.03;;;1.20;;
81936;SDS011;71432;56.558;9.036;2023-08-08T13:55:17;6.05;;;1.00;;
81936;SDS011;71432;56.558;9.036;2023-08-08T13:57:43;17.80;;;1.80;;
81936;SDS011;71432;56.558;9.036;2023-08-08T14:00:09;4.57;;;1.20;;
81936;SDS011;71432;56.558;9.036;2023-08-08T14:02:37;6.97;;;1.55;;
81936;SDS011;71432;56.558;9.036;2023-08-08T14:05:02;11.48;;;1.60;;
81936;SDS011;71432;56.558;9.036;2023-08-08T14:07:31;8.55;;;1.52;;
81936;SDS011;71432;56.558;9.036;2023-08-08T14:09:57;7.63;;;1.30;;
81936;SDS011;71432;56.558;9.036;2023-08-08T14:12:22;13.47;;;2.10;;
81936;SDS011;71432;56.558;9.036;2023-08-08T14:14:47;10.47;;;2.03;;
81936;SDS011;71432;56.558;9.036;2023-08-08T14:17:13;14.87;;;2.77;;
81936;SDS011;71432;56.558;9.036;2023-08-08T14:19:38;13.63;;;4.05;;
81936;SDS011;71432;56.558;9.036;2023-08-08T14:22:03;10.63;;;2.53;;
81936;SDS011;71432;56.558;9.036;2023-08-08T14:24:29;11.00;;;2.30;;
81936;SDS011;71432;56.558;9.036;2023-08-08T14:26:54;8.70;;;2.40;;
81936;SDS011;71432;56.558;9.036;2023-08-08T14:29:20;10.85;;;3.22;;
81936;SDS011;71432;56.558;9.036;2023-08-08T14:31:45;12.47;;;1.77;;
81936;SDS011;71432;56.558;9.036;2023-08-08T14:34:11;7.18;;;2.15;;
81936;SDS011;71432;56.558;9.036;2023-08-08T14:36:36;9.55;;;2.05;;
81936;SDS011;71432;56.558;9.036;2023-08-08T14:39:02;11.52;;;2.28;;
81936;SDS011;71432;56.558;9.036;2023-08-08T14:41:27;11.25;;;2.00;;
81936;SDS011;71432;56.558;9.036;2023-08-08T14:43:53;10.25;;;2.47;;
81936;SDS011;71432;56.558;9.036;2023-08-08T14:46:18;9.80;;;1.85;;
81936;SDS011;71432;56.558;9.036;2023-08-08T14:48:43;10.53;;;1.87;;
81936;SDS011;71432;56.558;9.036;2023-08-08T14:51:09;9.87;;;1.90;;
81936;SDS011;71432;56.558;9.036;2023-08-08T14:53:34;13.88;;;2.83;;
81936;SDS011;71432;56.558;9.036;2023-08-08T14:55:59;13.47;;;1.93;;
81936;SDS011;71432;56.558;9.036;2023-08-08T14:58:25;11.27;;;2.00;;
81936;SDS011;71432;56.558;9.036;2023-08-08T15:00:50;9.95;;;2.20;;
81936;SDS011;71432;56.558;9.036;2023-08-08T15:03:16;8.43;;;1.50;;
81936;SDS011;71432;56.558;9.036;2023-08-08T15:05:43;8.52;;;1.75;;
81936;SDS011;71432;56.558;9.036;2023-08-08T15:08:10;10.18;;;1.65;;
81936;SDS011;71432;56.558;9.036;2023-08-08T15:10:36;16.05;;;2.30;;